sensor_id;sensor_type;location;lat;lon;timestamp;P1;durP1;ratioP1;P2;durP2;ratioP2
25780;SDS011;13626;48.128;11.628;2023-05-28T00:00:49;9.25;;;4.38;;
25780;SDS011;13626;48.128;11.628;2023-05-28T00:03:16;12.07;;;4.57;;
25780;SDS011;13626;48.128;11.628;2023-05-28T00:05:45;6.97;;;4.30;;
25780;SDS011;13626;48.128;11.628;2023-05-28T00:08:13;7.13;;;4.13;;
25780;SDS011;13626;48.128;11.628;2023-05-28T00:10:41;6.50;;;3.92;;
25780;SDS011;13626;48.128;11.628;2023-05-28T00:13:08;11.88;;;4.88;;
25780;SDS011;13626;48.128;11.628;2023-05-28T00:15:36;8.55;;;4.10;;
25780;SDS011;13626;48.128;11.628;2023-05-28T00:18:04;9.45;;;5.18;;
25780;SDS011;13626;48.128;11.628;2023-05-28T00:20:31;11.80;;;5.28;;
25780;SDS011;13626;48.128;11.628;2023-05-28T00:22:59;12.38;;;4.75;;
25780;SDS011;13626;48.128;11.628;2023-05-28T00:25:27;11.02;;;4.35;;
25780;SDS011;13626;48.128;11.628;2023-05-28T00:27:54;14.57;;;4.82;;
25780;SDS011;13626;48.128;11.628;2023-05-28T00:30:21;11.82;;;4.63;;
25780;SDS011;13626;48.128;11.628;2023-05-28T00:32:51;9.27;;;4.28;;
25780;SDS011;13626;48.128;11.628;2023-05-28T00:35:18;8.57;;;4.28;;
25780;SDS011;13626;48.128;11.628;2023-05-28T00:37:45;10.30;;;4.55;;
25780;SDS011;13626;48.128;11.628;2023-05-28T00:40:12;6.32;;;4.00;;
25780;SDS011;13626;48.128;11.628;2023-05-28T00:42:44;8.95;;;3.92;;
25780;SDS011;13626;48.128;11.628;2023-05-28T00:45:12;14.98;;;5.00;;
25780;SDS011;13626;48.128;11.628;2023-05-28T00:47:39;8.98;;;4.57;;
25780;SDS011;13626;48.128;11.628;2023-05-28T00:50:07;9.20;;;4.35;;
25780;SDS011;13626;48.128;11.628;2023-05-28T00:52:35;10.50;;;4.30;;
25780;SDS011;13626;48.128;11.628;2023-05-28T00:55:11;5.90;;;3.83;;
25780;SDS011;13626;48.128;11.628;2023-05-28T00:57:39;8.07;;;4.03;;
25780;SDS011;13626;48.128;11.628;2023-05-28T01:00:07;9.68;;;4.60;;
25780;SDS011;13626;48.128;11.628;2023-05-28T01:02:35;10.88;;;3.85;;
25780;SDS011;13626;48.128;11.628;2023-05-28T01:05:03;8.45;;;4.50;;
25780;SDS011;13626;48.128;11.628;2023-05-28T01:07:31;6.10;;;3.95;;
25780;SDS011;13626;48.128;11.628;2023-05-28T01:09:59;8.05;;;4.05;;
25780;SDS011;13626;48.128;11.628;2023-05-28T01:12:26;10.73;;;4.30;;
25780;SDS011;13626;48.128;11.628;2023-05-28T01:14:53;11.73;;;4.40;;
25780;SDS011;13626;48.128;11.628;2023-05-28T01:17:21;8.75;;;4.50;;
25780;SDS011;13626;48.128;11.628;2023-05-28T01:19:48;10.18;;;4.93;;
25780;SDS011;13626;48.128;11.628;2023-05-28T01:22:17;9.30;;;4.43;;
25780;SDS011;13626;48.128;11.628;2023-05-28T01:24:47;9.32;;;4.43;;
25780;SDS011;13626;48.128;11.628;2023-05-28T01:27:15;11.05;;;4.30;;
25780;SDS011;13626;48.128;11.628;2023-05-28T01:29:42;10.15;;;4.50;;
25780;SDS011;13626;48.128;11.628;2023-05-28T01:32:10;10.43;;;4.72;;
25780;SDS011;13626;48.128;11.628;2023-05-28T01:34:37;11.85;;;4.85;;
25780;SDS011;13626;48.128;11.628;2023-05-28T01:37:06;9.40;;;3.78;;
25780;SDS011;13626;48.128;11.628;2023-05-28T01:39:41;9.50;;;4.32;;
25780;SDS011;13626;48.128;11.628;2023-05-28T01:42:09;6.47;;;3.90;;
25780;SDS011;13626;48.128;11.628;2023-05-28T01:44:37;9.45;;;4.07;;
25780;SDS011;13626;48.128;11.628;2023-05-28T01:47:04;9.32;;;4.40;;
25780;SDS011;13626;48.128;11.628;2023-05-28T01:49:32;8.13;;;4.22;;
25780;SDS011;13626;48.128;11.628;2023-05-28T01:52:00;8.20;;;4.25;;
25780;SDS011;13626;48.128;11.628;2023-05-28T01:54:29;10.43;;;4.82;;
25780;SDS011;13626;48.128;11.628;2023-05-28T01:56:56;10.32;;;4.28;;
25780;SDS011;13626;48.128;11.628;2023-05-28T01:59:23;8.85;;;4.32;;
25780;SDS011;13626;48.128;11.628;2023-05-28T02:01:52;10.70;;;4.60;;
25780;SDS011;13626;48.128;11.628;2023-05-28T02:04:19;9.63;;;4.30;;
25780;SDS011;13626;48.128;11.628;2023-05-28T02:06:46;9.07;;;4.47;;
25780;SDS011;13626;48.128;11.628;2023-05-28T02:09:14;8.65;;;4.50;;
25780;SDS011;13626;48.128;11.628;2023-05-28T02:11:41;10.60;;;4.35;;
25780;SDS011;13626;48.128;11.628;2023-05-28T02:14:08;5.95;;;4.07;;
25780;SDS011;13626;48.128;11.628;2023-05-28T02:16:41;10.25;;;4.50;;
25780;SDS011;13626;48.128;11.628;2023-05-28T02:19:09;8.40;;;4.68;;
25780;SDS011;13626;48.128;11.628;2023-05-28T02:21:37;9.70;;;4.50;;
25780;SDS011;13626;48.128;11.628;2023-05-28T02:24:05;9.30;;;5.00;;
25780;SDS011;13626;48.128;11.628;2023-05-28T02:26:32;9.93;;;4.90;;
25780;SDS011;13626;48.128;11.628;2023-05-28T02:28:59;7.95;;;4.22;;
25780;SDS011;13626;48.128;11.628;2023-05-28T02:31:27;13.57;;;4.78;;
25780;SDS011;13626;48.128;11.628;2023-05-28T02:33:54;8.25;;;4.57;;
25780;SDS011;13626;48.128;11.628;2023-05-28T02:36:22;10.48;;;4.40;;
25780;SDS011;13626;48.128;11.628;2023-05-28T02:38:49;8.38;;;4.47;;
25780;SDS011;13626;48.128;11.628;2023-05-28T02:41:16;9.25;;;4.35;;
25780;SDS011;13626;48.128;11.628;2023-05-28T02:43:44;8.25;;;4.60;;
25780;SDS011;13626;48.128;11.628;2023-05-28T02:46:11;11.73;;;5.10;;
25780;SDS011;13626;48.128;11.628;2023-05-28T02:48:39;9.68;;;4.72;;
25780;SDS011;13626;48.128;11.628;2023-05-28T02:51:06;8.82;;;4.88;;
25780;SDS011;13626;48.128;11.628;2023-05-28T02:53:33;12.15;;;5.00;;
25780;SDS011;13626;48.128;11.628;2023-05-28T02:56:01;9.68;;;5.32;;
25780;SDS011;13626;48.128;11.628;2023-05-28T02:58:28;8.98;;;4.90;;
25780;SDS011;13626;48.128;11.628;2023-05-28T03:00:56;8.13;;;4.70;;
25780;SDS011;13626;48.128;11.628;2023-05-28T03:03:24;8.85;;;4.88;;
25780;SDS011;13626;48.128;11.628;2023-05-28T03:05:51;10.73;;;5.35;;
25780;SDS011;13626;48.128;11.628;2023-05-28T03:08:19;9.43;;;5.28;;
25780;SDS011;13626;48.128;11.628;2023-05-28T03:10:47;11.23;;;4.85;;
25780;SDS011;13626;48.128;11.628;2023-05-28T03:13:14;10.48;;;4.63;;
25780;SDS011;13626;48.128;11.628;2023-05-28T03:15:41;9.20;;;4.70;;
25780;SDS011;13626;48.128;11.628;2023-05-28T03:18:10;9.98;;;4.80;;
25780;SDS011;13626;48.128;11.628;2023-05-28T03:20:37;9.40;;;4.53;;
25780;SDS011;13626;48.128;11.628;2023-05-28T03:23:05;9.45;;;4.75;;
25780;SDS011;13626;48.128;11.628;2023-05-28T03:25:32;9.60;;;4.75;;
25780;SDS011;13626;48.128;11.628;2023-05-28T03:27:59;9.23;;;4.80;;
25780;SDS011;13626;48.128;11.628;2023-05-28T03:30:26;13.40;;;4.60;;
25780;SDS011;13626;48.128;11.628;2023-05-28T03:32:54;9.57;;;4.75;;
25780;SDS011;13626;48.128;11.628;2023-05-28T03:35:21;11.13;;;5.00;;
25780;SDS011;13626;48.128;11.628;2023-05-28T03:37:48;10.80;;;4.55;;
25780;SDS011;13626;48.128;11.628;2023-05-28T03:40:15;10.27;;;4.88;;
25780;SDS011;13626;48.128;11.628;2023-05-28T03:42:43;9.13;;;5.00;;
25780;SDS011;13626;48.128;11.628;2023-05-28T03:45:10;9.38;;;4.75;;
25780;SDS011;13626;48.128;11.628;2023-05-28T03:47:37;8.77;;;4.93;;
25780;SDS011;13626;48.128;11.628;2023-05-28T03:50:05;11.85;;;4.70;;
25780;SDS011;13626;48.128;11.628;2023-05-28T03:52:32;9.75;;;4.50;;
25780;SDS011;13626;48.128;11.628;2023-05-28T03:54:59;11.05;;;4.72;;
25780;SDS011;13626;48.128;11.628;2023-05-28T03:57:27;10.48;;;4.70;;
25780;SDS011;13626;48.128;11.628;2023-05-28T03:59:54;8.85;;;4.63;;
25780;SDS011;13626;48.128;11.628;2023-05-28T04:02:24;11.50;;;5.20;;
25780;SDS011;13626;48.128;11.628;2023-05-28T04:04:52;9.73;;;5.13;;
25780;SDS011;13626;48.128;11.628;2023-05-28T04:07:19;15.00;;;5.75;;
25780;SDS011;13626;48.128;11.628;2023-05-28T04:09:46;9.25;;;5.47;;
25780;SDS011;13626;48.128;11.628;2023-05-28T04:12:14;13.13;;;5.65;;
25780;SDS011;13626;48.128;11.628;2023-05-28T04:14:41;10.20;;;5.45;;
25780;SDS011;13626;48.128;11.628;2023-05-28T04:17:08;10.95;;;5.15;;
25780;SDS011;13626;48.128;11.628;2023-05-28T04:19:38;14.02;;;5.72;;
25780;SDS011;13626;48.128;11.628;2023-05-28T04:22:06;10.48;;;5.45;;
25780;SDS011;13626;48.128;11.628;2023-05-28T04:24:34;9.68;;;5.55;;
25780;SDS011;13626;48.128;11.628;2023-05-28T04:27:01;11.95;;;5.72;;
25780;SDS011;13626;48.128;11.628;2023-05-28T04:29:29;12.13;;;6.47;;
25780;SDS011;13626;48.128;11.628;2023-05-28T04:32:02;9.52;;;5.97;;
25780;SDS011;13626;48.128;11.628;2023-05-28T04:34:31;13.68;;;5.90;;
25780;SDS011;13626;48.128;11.628;2023-05-28T04:36:59;10.32;;;5.80;;
25780;SDS011;13626;48.128;11.628;2023-05-28T04:39:26;10.70;;;6.35;;
25780;SDS011;13626;48.128;11.628;2023-05-28T04:41:53;8.25;;;5.30;;
25780;SDS011;13626;48.128;11.628;2023-05-28T04:44:20;11.40;;;5.80;;
25780;SDS011;13626;48.128;11.628;2023-05-28T04:46:52;11.07;;;6.53;;
25780;SDS011;13626;48.128;11.628;2023-05-28T04:49:19;11.68;;;5.65;;
25780;SDS011;13626;48.128;11.628;2023-05-28T04:51:47;12.30;;;5.32;;
25780;SDS011;13626;48.128;11.628;2023-05-28T04:54:15;9.88;;;5.05;;
25780;SDS011;13626;48.128;11.628;2023-05-28T04:56:43;10.57;;;5.53;;
25780;SDS011;13626;48.128;11.628;2023-05-28T04:59:12;10.18;;;5.25;;
25780;SDS011;13626;48.128;11.628;2023-05-28T05:01:39;15.75;;;5.50;;
25780;SDS011;13626;48.128;11.628;2023-05-28T05:04:08;9.68;;;5.20;;
25780;SDS011;13626;48.128;11.628;2023-05-28T05:06:36;13.18;;;5.60;;
25780;SDS011;13626;48.128;11.628;2023-05-28T05:09:03;11.50;;;4.93;;
25780;SDS011;13626;48.128;11.628;2023-05-28T05:11:31;6.60;;;4.50;;
25780;SDS011;13626;48.128;11.628;2023-05-28T05:13:59;9.50;;;4.68;;
25780;SDS011;13626;48.128;11.628;2023-05-28T05:16:26;11.45;;;5.28;;
25780;SDS011;13626;48.128;11.628;2023-05-28T05:18:54;9.95;;;4.60;;
25780;SDS011;13626;48.128;11.628;2023-05-28T05:21:21;10.35;;;4.90;;
25780;SDS011;13626;48.128;11.628;2023-05-28T05:23:48;14.90;;;4.22;;
25780;SDS011;13626;48.128;11.628;2023-05-28T05:26:16;9.35;;;4.55;;
25780;SDS011;13626;48.128;11.628;2023-05-28T05:28:43;9.95;;;4.55;;
25780;SDS011;13626;48.128;11.628;2023-05-28T05:31:11;7.43;;;4.63;;
25780;SDS011;13626;48.128;11.628;2023-05-28T05:33:39;9.73;;;4.65;;
25780;SDS011;13626;48.128;11.628;2023-05-28T05:36:07;9.38;;;4.50;;
25780;SDS011;13626;48.128;11.628;2023-05-28T05:38:35;12.18;;;4.18;;
25780;SDS011;13626;48.128;11.628;2023-05-28T05:41:02;9.40;;;4.18;;
25780;SDS011;13626;48.128;11.628;2023-05-28T05:43:29;7.20;;;3.83;;
25780;SDS011;13626;48.128;11.628;2023-05-28T05:45:57;10.02;;;4.35;;
25780;SDS011;13626;48.128;11.628;2023-05-28T05:48:27;9.15;;;4.07;;
25780;SDS011;13626;48.128;11.628;2023-05-28T05:50:54;10.98;;;5.00;;
25780;SDS011;13626;48.128;11.628;2023-05-28T05:53:22;8.23;;;4.47;;
25780;SDS011;13626;48.128;11.628;2023-05-28T05:55:49;11.02;;;4.20;;
25780;SDS011;13626;48.128;11.628;2023-05-28T05:58:17;12.50;;;4.47;;
25780;SDS011;13626;48.128;11.628;2023-05-28T06:00:44;10.63;;;3.83;;
25780;SDS011;13626;48.128;11.628;2023-05-28T06:03:13;9.88;;;4.05;;
25780;SDS011;13626;48.128;11.628;2023-05-28T06:05:41;7.45;;;3.72;;
25780;SDS011;13626;48.128;11.628;2023-05-28T06:08:08;11.48;;;4.47;;
25780;SDS011;13626;48.128;11.628;2023-05-28T06:10:36;10.77;;;4.55;;
25780;SDS011;13626;48.128;11.628;2023-05-28T06:13:03;8.73;;;4.13;;
25780;SDS011;13626;48.128;11.628;2023-05-28T06:15:31;8.65;;;4.30;;
25780;SDS011;13626;48.128;11.628;2023-05-28T06:17:58;10.75;;;4.00;;
25780;SDS011;13626;48.128;11.628;2023-05-28T06:20:26;10.48;;;3.97;;
25780;SDS011;13626;48.128;11.628;2023-05-28T06:22:54;9.23;;;4.53;;
25780;SDS011;13626;48.128;11.628;2023-05-28T06:25:22;9.55;;;4.70;;
25780;SDS011;13626;48.128;11.628;2023-05-28T06:27:49;11.30;;;5.00;;
25780;SDS011;13626;48.128;11.628;2023-05-28T06:30:17;8.35;;;4.20;;
25780;SDS011;13626;48.128;11.628;2023-05-28T06:32:44;9.68;;;4.10;;
25780;SDS011;13626;48.128;11.628;2023-05-28T06:35:12;10.90;;;4.68;;
25780;SDS011;13626;48.128;11.628;2023-05-28T06:37:39;10.35;;;4.07;;
25780;SDS011;13626;48.128;11.628;2023-05-28T06:40:07;9.95;;;4.20;;
25780;SDS011;13626;48.128;11.628;2023-05-28T06:42:37;12.93;;;4.05;;
25780;SDS011;13626;48.128;11.628;2023-05-28T06:45:07;9.85;;;4.25;;
25780;SDS011;13626;48.128;11.628;2023-05-28T06:47:34;11.15;;;4.60;;
25780;SDS011;13626;48.128;11.628;2023-05-28T06:50:02;8.40;;;4.22;;
25780;SDS011;13626;48.128;11.628;2023-05-28T06:52:29;8.52;;;4.47;;
25780;SDS011;13626;48.128;11.628;2023-05-28T06:54:56;7.95;;;4.03;;
25780;SDS011;13626;48.128;11.628;2023-05-28T06:57:24;8.30;;;4.03;;
25780;SDS011;13626;48.128;11.628;2023-05-28T06:59:51;9.20;;;4.25;;
25780;SDS011;13626;48.128;11.628;2023-05-28T07:02:18;7.88;;;4.68;;
25780;SDS011;13626;48.128;11.628;2023-05-28T07:04:45;7.95;;;4.25;;
25780;SDS011;13626;48.128;11.628;2023-05-28T07:07:14;10.55;;;4.75;;
25780;SDS011;13626;48.128;11.628;2023-05-28T07:09:41;8.95;;;5.00;;
25780;SDS011;13626;48.128;11.628;2023-05-28T07:12:08;8.75;;;5.03;;
25780;SDS011;13626;48.128;11.628;2023-05-28T07:14:36;7.75;;;4.47;;
25780;SDS011;13626;48.128;11.628;2023-05-28T07:17:04;9.55;;;4.85;;
25780;SDS011;13626;48.128;11.628;2023-05-28T07:19:31;9.88;;;3.95;;
25780;SDS011;13626;48.128;11.628;2023-05-28T07:21:58;5.95;;;4.10;;
25780;SDS011;13626;48.128;11.628;2023-05-28T07:24:26;8.30;;;4.60;;
25780;SDS011;13626;48.128;11.628;2023-05-28T07:26:53;7.03;;;4.22;;
25780;SDS011;13626;48.128;11.628;2023-05-28T07:29:20;5.70;;;3.70;;
25780;SDS011;13626;48.128;11.628;2023-05-28T07:31:48;9.23;;;4.30;;
25780;SDS011;13626;48.128;11.628;2023-05-28T07:34:15;8.07;;;4.57;;
25780;SDS011;13626;48.128;11.628;2023-05-28T07:36:42;8.93;;;4.13;;
25780;SDS011;13626;48.128;11.628;2023-05-28T07:39:10;7.30;;;4.07;;
25780;SDS011;13626;48.128;11.628;2023-05-28T07:41:37;6.85;;;3.72;;
25780;SDS011;13626;48.128;11.628;2023-05-28T07:44:04;10.60;;;4.65;;
25780;SDS011;13626;48.128;11.628;2023-05-28T07:46:33;5.65;;;4.20;;
25780;SDS011;13626;48.128;11.628;2023-05-28T07:49:01;9.57;;;4.53;;
25780;SDS011;13626;48.128;11.628;2023-05-28T07:51:28;8.00;;;4.18;;
25780;SDS011;13626;48.128;11.628;2023-05-28T07:53:58;8.23;;;4.00;;
25780;SDS011;13626;48.128;11.628;2023-05-28T07:56:25;9.00;;;4.10;;
25780;SDS011;13626;48.128;11.628;2023-05-28T07:58:53;7.93;;;4.50;;
25780;SDS011;13626;48.128;11.628;2023-05-28T08:01:20;7.65;;;4.20;;
25780;SDS011;13626;48.128;11.628;2023-05-28T08:03:48;8.23;;;4.03;;
25780;SDS011;13626;48.128;11.628;2023-05-28T08:06:17;8.48;;;4.10;;
25780;SDS011;13626;48.128;11.628;2023-05-28T08:08:45;7.63;;;4.20;;
25780;SDS011;13626;48.128;11.628;2023-05-28T08:11:12;6.30;;;3.78;;
25780;SDS011;13626;48.128;11.628;2023-05-28T08:13:40;6.90;;;3.75;;
25780;SDS011;13626;48.128;11.628;2023-05-28T08:16:11;7.38;;;3.72;;
25780;SDS011;13626;48.128;11.628;2023-05-28T08:18:38;6.88;;;3.92;;
25780;SDS011;13626;48.128;11.628;2023-05-28T08:21:06;6.78;;;4.13;;
25780;SDS011;13626;48.128;11.628;2023-05-28T08:23:33;6.15;;;3.80;;
25780;SDS011;13626;48.128;11.628;2023-05-28T08:26:04;7.43;;;3.72;;
25780;SDS011;13626;48.128;11.628;2023-05-28T08:28:32;6.60;;;3.75;;
25780;SDS011;13626;48.128;11.628;2023-05-28T08:31:02;7.35;;;4.03;;
25780;SDS011;13626;48.128;11.628;2023-05-28T08:33:29;7.15;;;3.72;;
25780;SDS011;13626;48.128;11.628;2023-05-28T08:35:57;7.15;;;4.00;;
25780;SDS011;13626;48.128;11.628;2023-05-28T08:38:24;6.30;;;4.05;;
25780;SDS011;13626;48.128;11.628;2023-05-28T08:40:53;6.93;;;4.20;;
25780;SDS011;13626;48.128;11.628;2023-05-28T08:43:21;7.10;;;4.00;;
25780;SDS011;13626;48.128;11.628;2023-05-28T08:45:52;7.30;;;3.92;;
25780;SDS011;13626;48.128;11.628;2023-05-28T08:48:20;7.57;;;3.92;;
25780;SDS011;13626;48.128;11.628;2023-05-28T08:50:48;6.22;;;3.72;;
25780;SDS011;13626;48.128;11.628;2023-05-28T08:53:20;7.25;;;3.75;;
25780;SDS011;13626;48.128;11.628;2023-05-28T08:55:48;6.70;;;3.55;;
25780;SDS011;13626;48.128;11.628;2023-05-28T08:58:17;6.55;;;4.05;;
25780;SDS011;13626;48.128;11.628;2023-05-28T09:00:44;7.63;;;3.85;;
25780;SDS011;13626;48.128;11.628;2023-05-28T09:03:12;8.38;;;3.92;;
25780;SDS011;13626;48.128;11.628;2023-05-28T09:05:39;9.00;;;4.00;;
25780;SDS011;13626;48.128;11.628;2023-05-28T09:08:07;9.23;;;4.05;;
25780;SDS011;13626;48.128;11.628;2023-05-28T09:10:35;6.32;;;3.80;;
25780;SDS011;13626;48.128;11.628;2023-05-28T09:13:02;7.78;;;3.95;;
25780;SDS011;13626;48.128;11.628;2023-05-28T09:15:31;6.90;;;4.13;;
25780;SDS011;13626;48.128;11.628;2023-05-28T09:17:58;7.57;;;3.90;;
25780;SDS011;13626;48.128;11.628;2023-05-28T09:20:26;7.47;;;3.97;;
25780;SDS011;13626;48.128;11.628;2023-05-28T09:22:57;9.05;;;4.38;;
25780;SDS011;13626;48.128;11.628;2023-05-28T09:25:27;8.40;;;4.20;;
25780;SDS011;13626;48.128;11.628;2023-05-28T09:27:56;7.55;;;4.18;;
25780;SDS011;13626;48.128;11.628;2023-05-28T09:30:24;7.57;;;4.13;;
25780;SDS011;13626;48.128;11.628;2023-05-28T09:33:00;8.05;;;3.58;;
25780;SDS011;13626;48.128;11.628;2023-05-28T09:35:29;5.68;;;3.75;;
25780;SDS011;13626;48.128;11.628;2023-05-28T09:40:27;8.90;;;4.05;;
25780;SDS011;13626;48.128;11.628;2023-05-28T09:42:54;7.50;;;3.83;;
25780;SDS011;13626;48.128;11.628;2023-05-28T09:45:27;6.72;;;3.65;;
25780;SDS011;13626;48.128;11.628;2023-05-28T09:47:54;8.77;;;3.97;;
25780;SDS011;13626;48.128;11.628;2023-05-28T09:50:22;7.50;;;3.88;;
25780;SDS011;13626;48.128;11.628;2023-05-28T09:52:49;10.13;;;4.10;;
25780;SDS011;13626;48.128;11.628;2023-05-28T09:55:19;8.90;;;3.90;;
25780;SDS011;13626;48.128;11.628;2023-05-28T09:57:55;8.10;;;3.92;;
25780;SDS011;13626;48.128;11.628;2023-05-28T10:05:39;7.55;;;3.95;;
25780;SDS011;13626;48.128;11.628;2023-05-28T10:08:07;12.70;;;4.00;;
25780;SDS011;13626;48.128;11.628;2023-05-28T10:10:36;7.55;;;4.05;;
25780;SDS011;13626;48.128;11.628;2023-05-28T10:13:04;8.70;;;3.97;;
25780;SDS011;13626;48.128;11.628;2023-05-28T10:15:34;8.43;;;4.22;;
25780;SDS011;13626;48.128;11.628;2023-05-28T10:18:02;7.60;;;3.78;;
25780;SDS011;13626;48.128;11.628;2023-05-28T10:20:30;6.88;;;3.50;;
25780;SDS011;13626;48.128;11.628;2023-05-28T10:22:57;8.05;;;3.60;;
25780;SDS011;13626;48.128;11.628;2023-05-28T10:25:25;7.53;;;3.60;;
25780;SDS011;13626;48.128;11.628;2023-05-28T10:27:56;8.38;;;3.95;;
25780;SDS011;13626;48.128;11.628;2023-05-28T10:30:31;8.95;;;3.90;;
25780;SDS011;13626;48.128;11.628;2023-05-28T10:32:59;10.45;;;3.65;;
25780;SDS011;13626;48.128;11.628;2023-05-28T10:35:27;11.45;;;3.97;;
25780;SDS011;13626;48.128;11.628;2023-05-28T10:38:07;7.13;;;4.18;;
25780;SDS011;13626;48.128;11.628;2023-05-28T10:40:35;7.43;;;3.92;;
25780;SDS011;13626;48.128;11.628;2023-05-28T10:43:02;10.10;;;4.47;;
25780;SDS011;13626;48.128;11.628;2023-05-28T10:45:36;9.32;;;4.13;;
25780;SDS011;13626;48.128;11.628;2023-05-28T10:48:04;8.13;;;4.10;;
25780;SDS011;13626;48.128;11.628;2023-05-28T10:50:44;6.95;;;3.78;;
25780;SDS011;13626;48.128;11.628;2023-05-28T10:53:26;7.28;;;3.70;;
25780;SDS011;13626;48.128;11.628;2023-05-28T10:55:54;7.70;;;4.10;;
25780;SDS011;13626;48.128;11.628;2023-05-28T10:58:23;10.85;;;4.32;;
25780;SDS011;13626;48.128;11.628;2023-05-28T11:00:51;7.10;;;4.15;;
25780;SDS011;13626;48.128;11.628;2023-05-28T11:03:37;8.60;;;3.97;;
25780;SDS011;13626;48.128;11.628;2023-05-28T11:06:06;8.85;;;3.90;;
25780;SDS011;13626;48.128;11.628;2023-05-28T11:08:38;6.22;;;3.67;;
25780;SDS011;13626;48.128;11.628;2023-05-28T11:11:06;10.40;;;3.63;;
25780;SDS011;13626;48.128;11.628;2023-05-28T11:13:33;7.07;;;3.80;;
25780;SDS011;13626;48.128;11.628;2023-05-28T11:16:07;7.72;;;3.83;;
25780;SDS011;13626;48.128;11.628;2023-05-28T11:18:35;5.03;;;2.93;;
25780;SDS011;13626;48.128;11.628;2023-05-28T11:21:03;6.88;;;3.88;;
25780;SDS011;13626;48.128;11.628;2023-05-28T11:23:30;7.20;;;3.63;;
25780;SDS011;13626;48.128;11.628;2023-05-28T11:25:58;9.82;;;3.75;;
25780;SDS011;13626;48.128;11.628;2023-05-28T11:31:10;6.85;;;4.25;;
25780;SDS011;13626;48.128;11.628;2023-05-28T11:33:40;7.20;;;3.78;;
25780;SDS011;13626;48.128;11.628;2023-05-28T11:36:07;6.55;;;3.72;;
25780;SDS011;13626;48.128;11.628;2023-05-28T11:38:38;7.05;;;4.00;;
25780;SDS011;13626;48.128;11.628;2023-05-28T11:41:05;9.80;;;3.92;;
25780;SDS011;13626;48.128;11.628;2023-05-28T11:43:32;7.57;;;3.70;;
25780;SDS011;13626;48.128;11.628;2023-05-28T11:46:00;7.95;;;3.83;;
25780;SDS011;13626;48.128;11.628;2023-05-28T11:48:27;7.85;;;3.67;;
25780;SDS011;13626;48.128;11.628;2023-05-28T11:51:01;10.05;;;3.72;;
25780;SDS011;13626;48.128;11.628;2023-05-28T11:56:06;7.10;;;3.42;;
25780;SDS011;13626;48.128;11.628;2023-05-28T11:58:34;8.43;;;3.90;;
25780;SDS011;13626;48.128;11.628;2023-05-28T12:01:06;5.57;;;3.58;;
25780;SDS011;13626;48.128;11.628;2023-05-28T12:03:34;7.95;;;4.05;;
25780;SDS011;13626;48.128;11.628;2023-05-28T12:06:01;7.90;;;3.85;;
25780;SDS011;13626;48.128;11.628;2023-05-28T12:08:29;6.60;;;3.85;;
25780;SDS011;13626;48.128;11.628;2023-05-28T12:11:00;7.53;;;3.95;;
25780;SDS011;13626;48.128;11.628;2023-05-28T12:13:34;8.63;;;3.58;;
25780;SDS011;13626;48.128;11.628;2023-05-28T12:16:09;8.23;;;3.80;;
25780;SDS011;13626;48.128;11.628;2023-05-28T12:21:04;7.57;;;3.65;;
25780;SDS011;13626;48.128;11.628;2023-05-28T12:23:32;8.80;;;3.60;;
25780;SDS011;13626;48.128;11.628;2023-05-28T12:25:59;7.95;;;3.63;;
25780;SDS011;13626;48.128;11.628;2023-05-28T12:28:36;7.55;;;4.13;;
25780;SDS011;13626;48.128;11.628;2023-05-28T12:31:08;7.85;;;3.90;;
25780;SDS011;13626;48.128;11.628;2023-05-28T12:33:36;8.73;;;3.85;;
25780;SDS011;13626;48.128;11.628;2023-05-28T12:36:03;7.97;;;3.28;;
25780;SDS011;13626;48.128;11.628;2023-05-28T12:38:31;5.68;;;3.20;;
25780;SDS011;13626;48.128;11.628;2023-05-28T12:41:02;8.75;;;4.07;;
25780;SDS011;13626;48.128;11.628;2023-05-28T12:43:33;6.60;;;3.67;;
25780;SDS011;13626;48.128;11.628;2023-05-28T12:46:02;9.98;;;3.47;;
25780;SDS011;13626;48.128;11.628;2023-05-28T12:48:29;8.40;;;4.00;;
25780;SDS011;13626;48.128;11.628;2023-05-28T12:50:57;6.50;;;3.78;;
25780;SDS011;13626;48.128;11.628;2023-05-28T12:53:24;5.53;;;3.40;;
25780;SDS011;13626;48.128;11.628;2023-05-28T12:55:52;5.20;;;3.53;;
25780;SDS011;13626;48.128;11.628;2023-05-28T12:58:19;7.50;;;3.90;;
25780;SDS011;13626;48.128;11.628;2023-05-28T13:00:48;8.45;;;4.38;;
25780;SDS011;13626;48.128;11.628;2023-05-28T13:03:15;7.78;;;3.38;;
25780;SDS011;13626;48.128;11.628;2023-05-28T13:05:46;7.35;;;3.85;;
25780;SDS011;13626;48.128;11.628;2023-05-28T13:08:13;9.60;;;3.85;;
25780;SDS011;13626;48.128;11.628;2023-05-28T13:10:42;7.63;;;3.83;;
25780;SDS011;13626;48.128;11.628;2023-05-28T13:13:10;9.88;;;3.75;;
25780;SDS011;13626;48.128;11.628;2023-05-28T13:15:37;5.72;;;3.22;;
25780;SDS011;13626;48.128;11.628;2023-05-28T13:18:05;10.30;;;3.92;;
25780;SDS011;13626;48.128;11.628;2023-05-28T13:20:32;9.48;;;4.15;;
25780;SDS011;13626;48.128;11.628;2023-05-28T13:23:00;8.15;;;3.72;;
25780;SDS011;13626;48.128;11.628;2023-05-28T13:25:27;7.60;;;4.00;;
25780;SDS011;13626;48.128;11.628;2023-05-28T13:27:54;7.20;;;3.88;;
25780;SDS011;13626;48.128;11.628;2023-05-28T13:30:22;8.70;;;3.83;;
25780;SDS011;13626;48.128;11.628;2023-05-28T13:32:49;6.50;;;3.72;;
25780;SDS011;13626;48.128;11.628;2023-05-28T13:35:16;6.55;;;3.90;;
25780;SDS011;13626;48.128;11.628;2023-05-28T13:37:44;6.88;;;3.72;;
25780;SDS011;13626;48.128;11.628;2023-05-28T13:40:11;8.45;;;3.95;;
25780;SDS011;13626;48.128;11.628;2023-05-28T13:42:40;7.35;;;3.67;;
25780;SDS011;13626;48.128;11.628;2023-05-28T13:45:07;7.57;;;3.33;;
25780;SDS011;13626;48.128;11.628;2023-05-28T13:47:36;5.97;;;3.95;;
25780;SDS011;13626;48.128;11.628;2023-05-28T13:50:04;6.45;;;3.42;;
25780;SDS011;13626;48.128;11.628;2023-05-28T13:52:32;6.22;;;3.60;;
25780;SDS011;13626;48.128;11.628;2023-05-28T13:54:59;5.90;;;3.25;;
25780;SDS011;13626;48.128;11.628;2023-05-28T13:57:26;6.50;;;4.13;;
25780;SDS011;13626;48.128;11.628;2023-05-28T13:59:54;6.72;;;4.30;;
25780;SDS011;13626;48.128;11.628;2023-05-28T14:02:21;6.13;;;3.90;;
25780;SDS011;13626;48.128;11.628;2023-05-28T14:04:48;5.75;;;3.90;;
25780;SDS011;13626;48.128;11.628;2023-05-28T14:07:16;7.25;;;3.95;;
25780;SDS011;13626;48.128;11.628;2023-05-28T14:09:43;8.60;;;4.13;;
25780;SDS011;13626;48.128;11.628;2023-05-28T14:12:10;7.30;;;4.63;;
25780;SDS011;13626;48.128;11.628;2023-05-28T14:14:40;6.05;;;4.30;;
25780;SDS011;13626;48.128;11.628;2023-05-28T14:17:08;6.50;;;4.40;;
25780;SDS011;13626;48.128;11.628;2023-05-28T14:19:35;10.40;;;4.97;;
25780;SDS011;13626;48.128;11.628;2023-05-28T14:22:03;8.45;;;4.80;;
25780;SDS011;13626;48.128;11.628;2023-05-28T14:24:30;8.88;;;4.72;;
25780;SDS011;13626;48.128;11.628;2023-05-28T14:26:59;8.57;;;4.43;;
25780;SDS011;13626;48.128;11.628;2023-05-28T14:29:26;8.23;;;4.15;;
25780;SDS011;13626;48.128;11.628;2023-05-28T14:31:54;8.48;;;5.07;;
25780;SDS011;13626;48.128;11.628;2023-05-28T14:34:21;9.88;;;4.65;;
25780;SDS011;13626;48.128;11.628;2023-05-28T14:36:48;7.78;;;4.32;;
25780;SDS011;13626;48.128;11.628;2023-05-28T14:39:16;10.02;;;4.95;;
25780;SDS011;13626;48.128;11.628;2023-05-28T14:41:43;7.03;;;4.68;;
25780;SDS011;13626;48.128;11.628;2023-05-28T14:44:10;9.20;;;5.03;;
25780;SDS011;13626;48.128;11.628;2023-05-28T14:46:38;8.30;;;4.55;;
25780;SDS011;13626;48.128;11.628;2023-05-28T14:49:05;5.80;;;4.38;;
25780;SDS011;13626;48.128;11.628;2023-05-28T14:51:32;9.00;;;5.38;;